Terminal Aerodrome Forecast
Issued by NWS

Current Version | Previous Version | Text Only | Print | Product List | Glossary On
Versions: 1 2 3 4 5 6 7 8 9 10 11 12 13 14 15 16
000
FTUS46 KSEW 290520
TAFHQM
TAF
KHQM 290520Z 2906/3006 28008KT P6SM SCT200
     FM291000 VRB04KT P6SM SCT035 BKN120
     FM291400 09006KT P6SM BKN035 OVC090
     FM291800 12007KT P6SM BKN035 OVC060
     FM292300 18012KT P6SM -RA OVC035=

USA.gov is the U.S. government's official web portal to all federal, state and local government web resources and services.